Time;durP1;ratioP1;P1;durP2;ratioP2;P2;SDS_P1;SDS_P2;PMS_P1;PMS_P2;Temp;Humidity;BMP_temperature;BMP_pressure;BME280_temperature;BME280_humidity;BME280_pressure;Samples;Min_cycle;Max_cycle;Signal;HPM_P1;HPM_P2
2023/03/05 00:00:37;;;;;;;8.47;2.10;;;5.20;1.00;;;;;;5056289;28;20457;-53
2023/03/05 00:03:03;;;;;;;6.83;2.20;;;5.30;1.00;;;;;;5052258;28;20301;-54
2023/03/05 00:05:28;;;;;;;12.80;2.33;;;5.30;1.00;;;;;;5057002;28;20199;-54
2023/03/05 00:07:54;;;;;;;10.10;2.80;;;5.20;1.00;;;;;;5060633;28;20320;-52
2023/03/05 00:10:20;;;;;;;10.50;2.20;;;5.10;1.00;;;;;;5047854;28;20192;-56
2023/03/05 00:12:46;;;;;;;7.47;1.90;;;5.00;1.00;;;;;;5052536;28;20460;-55
2023/03/05 00:15:11;;;;;;;6.27;2.20;;;5.10;1.00;;;;;;5048982;28;20211;-55
2023/03/05 00:17:37;;;;;;;5.53;2.77;;;5.00;1.00;;;;;;5050599;28;20674;-54
2023/03/05 00:20:03;;;;;;;3.80;1.80;;;5.00;1.00;;;;;;5048536;28;20187;-55
2023/03/05 00:22:29;;;;;;;8.60;3.20;;;5.00;1.00;;;;;;5046667;28;20188;-55
2023/03/05 00:24:54;;;;;;;7.90;2.23;;;5.00;1.00;;;;;;5050489;28;20547;-54
2023/03/05 00:27:20;;;;;;;4.43;2.03;;;5.10;1.00;;;;;;5052623;28;20275;-55
2023/03/05 00:29:45;;;;;;;5.63;2.50;;;5.00;1.00;;;;;;5040562;28;20295;-56
2023/03/05 00:32:11;;;;;;;5.33;2.70;;;5.00;1.00;;;;;;5050055;28;20669;-56
2023/03/05 00:34:37;;;;;;;9.33;2.67;;;4.90;1.00;;;;;;5052506;28;20198;-54
2023/03/05 00:37:02;;;;;;;14.20;3.50;;;5.00;1.00;;;;;;5054036;28;20192;-53
2023/03/05 00:39:28;;;;;;;13.83;3.60;;;5.10;1.00;;;;;;5051392;28;20193;-52
2023/03/05 00:41:53;;;;;;;6.13;3.30;;;4.90;1.00;;;;;;5057539;28;20237;-53
2023/03/05 00:44:20;;;;;;;7.80;3.17;;;4.90;1.00;;;;;;5048392;28;20254;-55
2023/03/05 00:46:45;;;;;;;13.80;2.40;;;5.00;1.00;;;;;;5047563;28;20187;-55
2023/03/05 00:49:11;;;;;;;5.70;2.83;;;5.00;1.00;;;;;;5055495;28;20834;-53
2023/03/05 00:51:37;;;;;;;7.20;2.80;;;4.90;1.00;;;;;;5046559;28;20560;-56
2023/03/05 00:54:04;;;;;;;7.07;2.70;;;4.90;1.00;;;;;;5049241;28;20228;-55
2023/03/05 00:56:30;;;;;;;8.13;3.03;;;4.80;1.00;;;;;;5052157;28;20188;-54
2023/03/05 00:58:56;;;;;;;6.80;2.70;;;4.80;1.00;;;;;;5050922;28;21132;-55
2023/03/05 01:01:22;;;;;;;11.03;2.53;;;4.80;1.00;;;;;;5052237;28;20597;-54
2023/03/05 01:03:47;;;;;;;8.37;3.47;;;4.80;1.00;;;;;;5046793;28;20470;-55
2023/03/05 01:06:15;;;;;;;10.73;2.60;;;4.80;1.00;;;;;;5054172;28;20457;-55
2023/03/05 01:08:42;;;;;;;6.67;2.73;;;4.80;1.00;;;;;;5050112;28;20268;-54
2023/03/05 01:11:08;;;;;;;6.93;1.83;;;4.80;1.00;;;;;;5050620;28;20446;-53
2023/03/05 01:13:34;;;;;;;8.00;2.67;;;4.80;1.00;;;;;;5052380;28;20457;-54
2023/03/05 01:16:00;;;;;;;7.07;3.10;;;4.70;1.00;;;;;;5048614;28;21095;-58
2023/03/05 01:18:26;;;;;;;7.77;2.63;;;4.70;1.00;;;;;;5052123;28;20465;-57
2023/03/05 01:20:51;;;;;;;3.43;1.77;;;4.80;1.00;;;;;;5063749;28;20448;-53
2023/03/05 01:23:17;;;;;;;9.50;2.23;;;4.90;1.00;;;;;;5050118;28;20253;-56
2023/03/05 01:25:43;;;;;;;5.77;2.87;;;4.80;1.00;;;;;;5059889;28;20238;-54
2023/03/05 01:28:09;;;;;;;4.90;2.13;;;4.80;1.00;;;;;;5048971;28;20822;-54
2023/03/05 01:30:35;;;;;;;8.40;2.57;;;4.80;1.00;;;;;;5055622;28;20196;-54
2023/03/05 01:33:01;;;;;;;9.00;2.30;;;4.60;1.00;;;;;;5058315;28;20649;-54
2023/03/05 01:35:27;;;;;;;15.63;2.30;;;4.70;1.00;;;;;;5056928;28;20223;-56
2023/03/05 01:37:53;;;;;;;6.50;2.00;;;4.70;1.00;;;;;;5054577;28;20902;-58
2023/03/05 01:40:24;;;;;;;6.77;2.23;;;4.60;1.00;;;;;;5060774;28;20456;-54
2023/03/05 01:43:15;;;;;;;4.03;2.23;;;4.50;1.00;;;;;;5059472;28;20962;-53
2023/03/05 01:46:19;;;;;;;5.93;1.90;;;4.60;1.00;;;;;;5046768;28;20455;-53
2023/03/05 01:48:52;;;;;;;4.53;2.27;;;4.50;1.00;;;;;;5049994;28;20568;-56
2023/03/05 01:51:21;;;;;;;9.40;2.27;;;4.40;1.00;;;;;;5056016;28;20442;-54
2023/03/05 01:53:47;;;;;;;7.27;1.87;;;4.40;1.00;;;;;;5049183;28;21044;-51
2023/03/05 01:56:13;;;;;;;5.87;1.20;;;4.40;1.00;;;;;;5057996;28;20446;-54
2023/03/05 01:58:39;;;;;;;7.37;2.50;;;4.30;1.00;;;;;;5058870;28;20274;-55
2023/03/05 02:01:05;;;;;;;7.70;1.83;;;4.30;1.00;;;;;;5060305;28;20542;-55
2023/03/05 02:03:31;;;;;;;10.87;2.13;;;4.30;1.00;;;;;;5057424;28;20227;-54
2023/03/05 02:05:57;;;;;;;11.07;2.07;;;4.30;1.00;;;;;;5052925;28;20451;-51
2023/03/05 02:08:23;;;;;;;10.60;1.70;;;4.30;1.00;;;;;;5055975;28;20922;-55
2023/03/05 02:10:55;;;;;;;8.23;1.93;;;4.20;1.00;;;;;;5060396;28;20263;-56
2023/03/05 02:13:26;;;;;;;5.67;2.00;;;4.20;1.00;;;;;;5053615;28;20496;-52
2023/03/05 02:15:53;;;;;;;7.83;1.77;;;4.30;1.00;;;;;;5050831;28;20443;-56
2023/03/05 02:18:22;;;;;;;6.97;2.00;;;4.40;1.00;;;;;;5058737;28;20476;-51
2023/03/05 02:20:49;;;;;;;4.00;1.63;;;4.30;1.00;;;;;;5047190;28;20533;-54
2023/03/05 02:23:16;;;;;;;6.00;2.90;;;4.30;1.00;;;;;;5045556;28;20466;-54
2023/03/05 02:25:42;;;;;;;6.13;2.40;;;4.30;1.00;;;;;;5062284;28;20484;-54
2023/03/05 02:28:21;;;;;;;5.50;2.30;;;4.20;1.00;;;;;;5052430;28;20475;-53
2023/03/05 02:30:47;;;;;;;7.17;1.90;;;4.20;1.00;;;;;;5053560;28;20305;-53
2023/03/05 02:33:14;;;;;;;5.00;1.40;;;4.10;1.00;;;;;;5053030;28;20897;-54
2023/03/05 02:35:40;;;;;;;4.30;1.80;;;4.20;1.00;;;;;;5051173;28;20512;-56
2023/03/05 02:38:05;;;;;;;3.10;1.50;;;4.30;1.00;;;;;;5058943;28;20784;-55
2023/03/05 02:40:31;;;;;;;5.00;1.70;;;4.30;1.00;;;;;;5054998;28;20434;-54
2023/03/05 02:42:57;;;;;;;7.77;1.83;;;4.30;1.00;;;;;;5059610;28;20238;-55
2023/03/05 02:45:22;;;;;;;7.00;1.70;;;4.20;1.00;;;;;;5056948;28;20184;-54
2023/03/05 02:47:48;;;;;;;5.40;1.63;;;4.20;1.00;;;;;;5062172;28;20219;-56
2023/03/05 02:50:13;;;;;;;4.67;1.70;;;4.20;1.00;;;;;;5048867;28;20642;-56
2023/03/05 02:52:39;;;;;;;4.10;1.90;;;4.30;1.00;;;;;;5049450;28;20223;-54
2023/03/05 02:55:05;;;;;;;5.27;1.73;;;4.10;1.00;;;;;;5055606;28;20196;-55
2023/03/05 02:57:31;;;;;;;6.80;1.67;;;4.20;1.00;;;;;;5055590;28;20273;-57
2023/03/05 02:59:56;;;;;;;3.83;1.23;;;4.20;1.00;;;;;;5045927;28;20455;-54
2023/03/05 03:02:22;;;;;;;5.23;1.23;;;4.20;1.00;;;;;;5056975;28;20725;-53
2023/03/05 03:04:48;;;;;;;5.30;1.40;;;4.20;1.00;;;;;;5061350;28;20200;-53
2023/03/05 03:07:14;;;;;;;6.83;1.67;;;4.30;1.00;;;;;;5054369;28;20187;-56
2023/03/05 03:09:41;;;;;;;4.80;1.27;;;4.30;1.00;;;;;;5050083;28;20591;-56
2023/03/05 03:12:07;;;;;;;4.40;1.87;;;4.20;1.00;;;;;;5053590;28;20995;-54
2023/03/05 03:14:38;;;;;;;5.10;2.10;;;4.00;1.00;;;;;;5056253;28;20526;-54
2023/03/05 03:17:06;;;;;;;2.57;1.30;;;4.00;1.00;;;;;;5049296;28;20471;-54
2023/03/05 03:19:31;;;;;;;5.70;1.40;;;4.00;1.00;;;;;;5058907;28;20445;-54
2023/03/05 03:21:57;;;;;;;4.90;1.67;;;4.00;1.00;;;;;;5050270;28;20985;-54
2023/03/05 03:24:22;;;;;;;7.80;1.97;;;4.10;1.00;;;;;;5057067;28;20200;-53
2023/03/05 03:26:48;;;;;;;3.63;1.80;;;4.10;1.00;;;;;;5061508;28;20192;-55
2023/03/05 03:29:16;;;;;;;3.90;1.30;;;4.10;1.00;;;;;;5041645;28;20192;-54
2023/03/05 03:31:44;;;;;;;2.97;1.30;;;4.00;1.00;;;;;;5046424;28;20504;-55
2023/03/05 03:34:11;;;;;;;5.50;2.37;;;3.90;1.00;;;;;;5051048;28;20461;-52
2023/03/05 03:36:37;;;;;;;4.60;1.37;;;3.90;1.00;;;;;;5053631;28;20601;-53
2023/03/05 03:39:04;;;;;;;4.60;1.50;;;3.90;1.00;;;;;;5059382;28;20541;-52
2023/03/05 03:41:31;;;;;;;4.33;1.53;;;4.00;1.00;;;;;;5054255;28;20196;-52
2023/03/05 03:43:56;;;;;;;7.30;1.50;;;4.00;1.00;;;;;;5053195;28;20470;-53
2023/03/05 03:46:22;;;;;;;3.43;1.50;;;4.10;1.00;;;;;;5053230;28;20499;-54
2023/03/05 03:48:50;;;;;;;9.20;1.60;;;4.10;1.00;;;;;;5052554;28;20261;-55
2023/03/05 03:51:16;;;;;;;10.90;1.63;;;4.00;1.00;;;;;;5055350;28;20567;-55
2023/03/05 03:53:42;;;;;;;4.40;1.50;;;4.10;1.00;;;;;;5046122;28;20576;-52
2023/03/05 03:56:07;;;;;;;3.23;1.10;;;4.10;1.00;;;;;;5049979;28;20255;-54
2023/03/05 03:58:33;;;;;;;2.43;1.13;;;4.10;1.00;;;;;;5053430;28;20188;-56
2023/03/05 04:00:58;;;;;;;4.23;1.43;;;4.00;1.00;;;;;;5053014;28;20217;-54
2023/03/05 04:03:24;;;;;;;6.93;2.63;;;4.10;1.00;;;;;;5050497;28;20227;-54
2023/03/05 04:05:49;;;;;;;2.33;1.40;;;4.00;1.00;;;;;;5051136;28;20188;-52
2023/03/05 04:08:15;;;;;;;1.37;0.67;;;4.00;1.00;;;;;;5052100;28;20188;-53
2023/03/05 04:10:41;;;;;;;3.23;1.10;;;4.10;1.00;;;;;;5055091;28;20645;-55
2023/03/05 04:13:06;;;;;;;3.53;1.20;;;4.00;1.00;;;;;;5048589;28;20199;-55
2023/03/05 04:15:33;;;;;;;3.27;1.00;;;4.00;1.00;;;;;;5047205;28;20190;-53
2023/03/05 04:17:59;;;;;;;5.70;1.30;;;4.10;1.00;;;;;;5049916;28;20267;-55
2023/03/05 04:20:24;;;;;;;3.70;1.53;;;4.00;1.00;;;;;;5051028;28;20529;-55
2023/03/05 04:22:50;;;;;;;5.10;1.20;;;3.90;1.00;;;;;;5059970;28;21009;-54
2023/03/05 04:25:16;;;;;;;3.00;1.27;;;3.90;1.00;;;;;;5055503;28;20278;-53
2023/03/05 04:27:41;;;;;;;4.83;1.20;;;4.00;1.00;;;;;;5056353;28;20220;-54
2023/03/05 04:30:08;;;;;;;8.33;0.87;;;4.00;1.00;;;;;;5050405;28;20195;-55
2023/03/05 04:32:34;;;;;;;2.67;1.20;;;4.10;1.00;;;;;;5049882;28;20194;-54
2023/03/05 04:34:59;;;;;;;2.70;1.00;;;4.00;1.00;;;;;;5055045;28;20842;-54
2023/03/05 04:37:25;;;;;;;3.20;0.70;;;4.00;1.00;;;;;;5048989;28;20710;-51
2023/03/05 04:39:51;;;;;;;1.90;0.90;;;4.10;1.00;;;;;;5052824;28;20227;-56
2023/03/05 04:42:18;;;;;;;3.80;1.30;;;4.10;1.00;;;;;;5056502;28;20223;-54
2023/03/05 04:44:47;;;;;;;3.67;1.30;;;4.00;1.00;;;;;;5047147;28;20495;-55
2023/03/05 04:47:13;;;;;;;3.47;1.60;;;4.00;1.00;;;;;;5052911;28;20451;-56
2023/03/05 04:49:39;;;;;;;3.83;0.97;;;4.10;1.00;;;;;;5054866;28;20495;-54
2023/03/05 04:52:04;;;;;;;4.13;1.17;;;4.00;1.00;;;;;;5054168;28;20195;-54
2023/03/05 04:54:30;;;;;;;4.90;1.23;;;3.90;1.00;;;;;;5053951;28;20692;-54
2023/03/05 04:56:56;;;;;;;2.13;0.90;;;3.90;1.00;;;;;;5047699;28;20188;-54
2023/03/05 04:59:21;;;;;;;7.03;1.17;;;3.90;1.00;;;;;;5044436;28;20318;-52
2023/03/05 05:01:47;;;;;;;10.70;2.30;;;3.90;1.00;;;;;;5045309;28;20188;-51
2023/03/05 05:04:12;;;;;;;3.77;1.33;;;3.90;1.00;;;;;;5050717;28;20208;-55
2023/03/05 05:06:38;;;;;;;2.60;1.60;;;3.90;1.00;;;;;;5048204;28;20259;-53
2023/03/05 05:09:04;;;;;;;4.60;1.43;;;3.80;1.00;;;;;;5050941;28;20584;-54
2023/03/05 05:11:29;;;;;;;2.93;1.70;;;3.80;1.00;;;;;;5063239;28;20184;-54
2023/03/05 05:13:55;;;;;;;4.47;1.83;;;3.70;1.00;;;;;;5050781;28;22051;-53
2023/03/05 05:16:21;;;;;;;2.60;1.67;;;3.80;1.00;;;;;;5058325;28;20255;-55
2023/03/05 05:18:46;;;;;;;3.43;1.70;;;3.70;1.00;;;;;;5059814;28;20187;-52
2023/03/05 05:21:13;;;;;;;5.87;1.90;;;3.70;1.00;;;;;;5046703;28;20184;-56
2023/03/05 05:23:39;;;;;;;3.27;1.60;;;3.70;1.00;;;;;;5047002;28;20623;-52
2023/03/05 05:26:06;;;;;;;2.97;1.70;;;3.70;1.00;;;;;;5042682;28;20529;-53
2023/03/05 05:28:32;;;;;;;3.07;2.17;;;3.70;1.00;;;;;;5055497;28;20215;-54
2023/03/05 05:30:58;;;;;;;5.07;2.20;;;3.60;1.00;;;;;;5045834;28;20537;-55
2023/03/05 05:33:24;;;;;;;7.60;2.20;;;3.60;1.00;;;;;;5054008;28;20473;-53
2023/03/05 05:35:50;;;;;;;5.93;1.83;;;3.70;1.00;;;;;;5047917;28;20189;-53
2023/03/05 05:38:16;;;;;;;10.37;2.90;;;3.70;1.00;;;;;;5055907;28;20449;-52
2023/03/05 05:40:41;;;;;;;5.97;2.10;;;3.70;1.00;;;;;;5051744;28;20200;-54
2023/03/05 05:43:07;;;;;;;7.00;2.50;;;3.80;1.00;;;;;;5049506;28;20211;-53
2023/03/05 05:45:36;;;;;;;3.30;1.93;;;3.80;1.00;;;;;;5061991;28;20519;-55
2023/03/05 05:48:01;;;;;;;3.57;2.00;;;3.70;1.00;;;;;;5048764;28;20438;-52
2023/03/05 05:50:27;;;;;;;3.60;1.97;;;3.80;1.00;;;;;;5051873;28;20989;-53
2023/03/05 05:52:53;;;;;;;3.53;1.83;;;3.70;1.00;;;;;;5047060;28;20231;-54
2023/03/05 05:55:18;;;;;;;2.20;1.67;;;3.80;1.00;;;;;;5053735;28;20230;-56
2023/03/05 05:57:44;;;;;;;3.00;1.70;;;3.90;1.00;;;;;;5056477;28;20237;-55
2023/03/05 06:00:12;;;;;;;3.87;1.60;;;3.90;1.00;;;;;;5063782;28;20223;-54
2023/03/05 06:02:39;;;;;;;5.80;2.23;;;3.90;1.00;;;;;;5051565;28;20234;-54
2023/03/05 06:05:05;;;;;;;2.27;1.50;;;4.00;1.00;;;;;;5051440;28;22269;-52
2023/03/05 06:07:32;;;;;;;2.67;1.60;;;4.00;1.00;;;;;;5051254;28;20448;-54
2023/03/05 06:09:58;;;;;;;5.00;1.80;;;4.00;1.00;;;;;;5053360;28;20447;-54
2023/03/05 06:12:23;;;;;;;3.40;1.97;;;4.00;1.00;;;;;;5054491;28;20445;-53
2023/03/05 06:14:49;;;;;;;3.93;1.97;;;4.00;1.00;;;;;;5060795;28;20209;-54
2023/03/05 06:17:15;;;;;;;2.87;1.80;;;4.10;1.00;;;;;;5048937;28;20197;-54
2023/03/05 06:19:40;;;;;;;2.00;1.80;;;4.20;1.00;;;;;;5043591;28;20638;-56
2023/03/05 06:22:06;;;;;;;3.33;1.60;;;4.10;1.00;;;;;;5049377;28;20184;-55
2023/03/05 06:24:31;;;;;;;4.00;2.37;;;4.10;1.00;;;;;;5054960;28;20682;-53
2023/03/05 06:26:57;;;;;;;4.10;1.90;;;4.10;1.00;;;;;;5061941;28;20181;-55
2023/03/05 06:29:23;;;;;;;3.60;1.87;;;4.10;1.00;;;;;;5049315;28;20193;-53
2023/03/05 06:31:48;;;;;;;3.53;1.50;;;4.10;1.00;;;;;;5056263;28;20232;-54
2023/03/05 06:34:14;;;;;;;4.03;1.50;;;4.20;1.00;;;;;;5053903;28;20283;-50
2023/03/05 06:36:39;;;;;;;2.80;1.57;;;4.20;1.00;;;;;;5052012;28;20188;-54
2023/03/05 06:39:05;;;;;;;1.77;1.20;;;4.20;1.00;;;;;;5056871;28;20781;-52
2023/03/05 06:41:31;;;;;;;2.30;1.40;;;4.20;1.00;;;;;;5060455;28;20192;-53
2023/03/05 06:44:01;;;;;;;2.50;1.40;;;4.20;1.00;;;;;;5055731;28;20203;-55
2023/03/05 06:46:29;;;;;;;3.23;1.30;;;4.20;1.00;;;;;;5056964;28;20464;-54
2023/03/05 06:48:59;;;;;;;1.47;1.27;;;5.10;1.00;;;;;;5057701;28;20946;-55
2023/03/05 06:51:28;;;;;;;1.67;1.37;;;4.10;1.00;;;;;;5052147;28;21070;-53
2023/03/05 06:53:54;;;;;;;2.93;0.93;;;4.20;1.00;;;;;;5053314;28;20469;-51
2023/03/05 06:56:22;;;;;;;2.30;1.30;;;4.10;1.00;;;;;;5058883;28;20478;-53
2023/03/05 06:58:49;;;;;;;1.97;1.07;;;4.20;1.00;;;;;;5054247;28;20457;-57
2023/03/05 07:01:15;;;;;;;7.97;1.13;;;4.30;1.00;;;;;;5054965;28;20453;-54
2023/03/05 07:03:42;;;;;;;2.47;1.20;;;4.10;1.00;;;;;;5054997;28;20948;-53
2023/03/05 07:06:10;;;;;;;3.73;0.93;;;4.10;1.00;;;;;;5057082;28;20523;-54
2023/03/05 07:08:36;;;;;;;2.17;0.90;;;4.20;1.00;;;;;;5057117;28;20509;-62
2023/03/05 07:11:03;;;;;;;4.80;1.27;;;4.10;1.00;;;;;;5041108;28;21099;-56
2023/03/05 07:13:28;;;;;;;2.50;0.90;;;4.20;1.00;;;;;;5050370;28;20516;-54
2023/03/05 07:15:54;;;;;;;3.80;0.70;;;4.10;1.00;;;;;;5058270;28;20464;-53
2023/03/05 07:18:20;;;;;;;2.57;1.67;;;4.20;1.00;;;;;;5046675;28;20193;-54
2023/03/05 07:20:46;;;;;;;1.03;0.93;;;4.30;1.00;;;;;;5049694;28;20294;-53
2023/03/05 07:23:11;;;;;;;5.20;3.00;;;4.10;1.00;;;;;;5059282;28;20284;-55
2023/03/05 07:25:37;;;;;;;7.27;2.50;;;4.10;1.00;;;;;;5054386;28;20467;-54
2023/03/05 07:28:05;;;;;;;3.60;2.00;;;4.20;1.00;;;;;;5053432;28;20715;-55
2023/03/05 07:30:31;;;;;;;1.23;1.10;;;4.20;1.00;;;;;;5050263;28;20440;-56
2023/03/05 07:32:56;;;;;;;1.33;0.60;;;4.10;1.00;;;;;;5051292;28;20457;-55
2023/03/05 07:35:23;;;;;;;6.50;3.57;;;4.10;1.00;;;;;;5064022;28;20989;-53
2023/03/05 07:37:49;;;;;;;2.50;1.60;;;4.10;1.00;;;;;;5057780;28;20196;-54
2023/03/05 07:40:15;;;;;;;2.00;1.57;;;4.20;1.00;;;;;;5046811;28;20451;-55
2023/03/05 07:42:40;;;;;;;1.73;1.07;;;4.30;1.00;;;;;;5048082;28;20504;-53
2023/03/05 07:45:06;;;;;;;1.53;0.80;;;4.30;1.00;;;;;;5047740;28;20665;-55
2023/03/05 07:47:32;;;;;;;2.50;1.40;;;4.40;1.00;;;;;;5048082;28;20223;-54
2023/03/05 07:49:58;;;;;;;1.70;1.00;;;4.60;1.00;;;;;;5048793;28;22188;-55
2023/03/05 07:52:23;;;;;;;2.00;1.40;;;4.60;1.00;;;;;;5050421;28;20248;-53
2023/03/05 07:54:49;;;;;;;2.07;1.53;;;4.70;1.00;;;;;;5044241;28;20228;-55
2023/03/05 07:57:15;;;;;;;1.20;0.80;;;4.80;1.00;;;;;;5043653;28;20192;-52
2023/03/05 07:59:41;;;;;;;2.97;1.40;;;4.70;1.00;;;;;;5049322;28;20207;-55
2023/03/05 08:02:12;;;;;;;2.77;1.37;;;4.80;1.00;;;;;;5049111;28;20189;-55
2023/03/05 08:04:38;;;;;;;3.80;2.07;;;4.70;1.00;;;;;;5045828;28;20590;-54
2023/03/05 08:07:04;;;;;;;2.10;1.33;;;4.70;1.00;;;;;;5046681;28;20447;-54
2023/03/05 08:09:30;;;;;;;3.60;1.47;;;4.70;1.00;;;;;;5054024;28;20493;-55
2023/03/05 08:11:55;;;;;;;1.80;1.40;;;4.50;1.00;;;;;;5057549;28;20267;-54
2023/03/05 08:14:21;;;;;;;1.53;1.33;;;4.40;1.00;;;;;;5050404;28;20710;-52
2023/03/05 08:16:51;;;;;;;2.53;1.20;;;4.40;1.00;;;;;;5059680;28;20192;-53
2023/03/05 08:19:18;;;;;;;2.53;1.40;;;4.50;1.00;;;;;;5048892;28;20199;-53
2023/03/05 08:21:44;;;;;;;3.00;1.50;;;4.40;1.00;;;;;;5052038;28;20473;-54
2023/03/05 08:24:11;;;;;;;1.57;1.20;;;4.30;1.00;;;;;;5052369;28;20472;-54
2023/03/05 08:26:38;;;;;;;1.67;1.30;;;4.20;1.00;;;;;;5051191;28;20528;-55
2023/03/05 08:29:04;;;;;;;2.70;1.50;;;4.40;1.00;;;;;;5054885;28;20935;-56
2023/03/05 08:31:30;;;;;;;3.73;1.67;;;4.40;1.00;;;;;;5049647;28;20536;-57
2023/03/05 08:33:58;;;;;;;3.30;1.60;;;4.50;1.00;;;;;;5047055;28;20813;-54
2023/03/05 08:36:24;;;;;;;2.90;1.40;;;4.50;1.00;;;;;;5055177;28;20446;-55
2023/03/05 08:38:50;;;;;;;3.40;1.83;;;4.70;1.00;;;;;;5046842;28;20932;-55
2023/03/05 08:41:17;;;;;;;1.43;1.10;;;4.80;1.00;;;;;;5057158;28;20184;-56
2023/03/05 08:43:43;;;;;;;5.13;1.80;;;5.10;1.00;;;;;;5047217;28;20462;-57
2023/03/05 08:46:11;;;;;;;6.43;2.17;;;5.20;1.00;;;;;;5053213;28;20811;-53
2023/03/05 08:48:37;;;;;;;1.83;1.70;;;5.20;1.00;;;;;;5048555;28;20187;-55
2023/03/05 08:51:08;;;;;;;4.00;2.40;;;5.40;1.00;;;;;;5048161;28;20435;-56
2023/03/05 08:53:33;;;;;;;6.33;2.37;;;5.60;1.00;;;;;;5051186;28;22257;-54
2023/03/05 08:55:59;;;;;;;3.87;2.33;;;5.60;1.00;;;;;;5055629;28;20446;-53
2023/03/05 08:58:25;;;;;;;3.70;1.83;;;5.60;1.00;;;;;;5050494;28;20214;-56
2023/03/05 09:00:51;;;;;;;3.50;2.20;;;5.60;1.00;;;;;;5051858;28;20184;-55
2023/03/05 09:03:17;;;;;;;3.77;2.60;;;5.30;1.00;;;;;;5045923;28;20191;-53
2023/03/05 09:05:43;;;;;;;4.57;1.90;;;5.30;1.00;;;;;;5050173;28;20195;-54
2023/03/05 09:08:09;;;;;;;6.20;2.80;;;5.00;1.00;;;;;;5053073;28;20872;-54
2023/03/05 09:10:34;;;;;;;5.70;2.77;;;4.90;1.00;;;;;;5048838;28;20190;-55
2023/03/05 09:13:00;;;;;;;4.10;2.90;;;4.60;1.00;;;;;;5053035;28;20185;-55
2023/03/05 09:15:26;;;;;;;3.17;2.70;;;4.60;1.00;;;;;;5054707;28;20244;-54
2023/03/05 09:17:51;;;;;;;7.17;3.33;;;4.70;1.00;;;;;;5047512;28;20246;-55
2023/03/05 09:20:17;;;;;;;3.97;2.87;;;4.90;1.00;;;;;;5052809;28;20187;-55
2023/03/05 09:22:43;;;;;;;9.13;4.17;;;5.00;1.00;;;;;;5051598;28;20278;-56
2023/03/05 09:25:11;;;;;;;4.70;3.07;;;5.00;1.00;;;;;;5047313;28;20214;-56
2023/03/05 09:27:37;;;;;;;5.23;3.00;;;4.90;1.00;;;;;;5054054;28;20208;-54
2023/03/05 09:30:04;;;;;;;3.90;3.60;;;4.90;1.00;;;;;;5051861;28;20437;-54
2023/03/05 09:32:30;;;;;;;7.10;3.93;;;4.70;1.00;;;;;;5053007;28;20438;-54
2023/03/05 09:34:56;;;;;;;7.17;3.37;;;4.70;1.00;;;;;;5042823;28;20472;-55
2023/03/05 09:37:22;;;;;;;4.50;3.40;;;4.60;1.00;;;;;;5047554;28;20227;-54
2023/03/05 09:39:47;;;;;;;5.03;2.90;;;4.70;1.00;;;;;;5051759;28;20454;-54
2023/03/05 09:42:44;;;;;;;3.87;3.10;;;4.70;1.00;;;;;;5055038;28;20649;-54
2023/03/05 09:45:34;;;;;;;7.10;3.60;;;4.70;1.00;;;;;;5050140;28;20290;-56
2023/03/05 09:48:09;;;;;;;6.13;3.50;;;4.90;1.00;;;;;;5046761;28;20968;-53
2023/03/05 09:50:37;;;;;;;6.47;3.10;;;4.90;1.00;;;;;;5050409;28;20972;-52
2023/03/05 09:53:07;;;;;;;6.43;3.37;;;4.90;1.00;;;;;;5049209;28;20455;-52
2023/03/05 09:55:39;;;;;;;6.73;3.80;;;5.00;1.00;;;;;;5049594;28;21009;-55
2023/03/05 09:58:14;;;;;;;4.20;3.10;;;5.40;1.00;;;;;;5053949;28;20460;-55
2023/03/05 10:00:43;;;;;;;8.20;3.23;;;5.60;1.00;;;;;;5041830;28;20435;-54
2023/03/05 10:03:16;;;;;;;5.53;4.37;;;5.70;1.00;;;;;;5048325;28;20446;-53
2023/03/05 10:05:46;;;;;;;5.80;3.83;;;5.90;1.00;;;;;;5030147;28;21532;-52
2023/03/05 10:08:15;;;;;;;5.53;3.93;;;6.00;1.00;;;;;;5035801;28;20442;-53
2023/03/05 10:10:49;;;;;;;5.50;3.83;;;5.90;1.00;;;;;;5048615;28;20451;-55
2023/03/05 10:13:28;;;;;;;5.20;3.30;;;5.50;1.00;;;;;;5052061;28;20446;-55
2023/03/05 10:16:15;;;;;;;3.37;2.70;;;5.40;1.00;;;;;;5052510;28;20507;-54
2023/03/05 10:19:00;;;;;;;6.10;3.90;;;5.20;1.00;;;;;;5054290;28;20434;-53
2023/03/05 10:22:00;;;;;;;6.60;3.50;;;5.30;1.00;;;;;;5054021;28;20445;-56
2023/03/05 10:25:04;;;;;;;5.80;3.80;;;5.40;1.00;;;;;;5049949;28;20481;-54
2023/03/05 10:28:04;;;;;;;5.80;3.90;;;5.60;1.00;;;;;;5048982;28;20470;-55
2023/03/05 10:30:42;;;;;;;5.83;3.60;;;5.70;1.00;;;;;;5036204;28;20513;-55
2023/03/05 10:33:21;;;;;;;3.60;3.17;;;5.80;1.00;;;;;;5033924;28;20523;-52
2023/03/05 10:35:58;;;;;;;4.50;3.10;;;5.70;1.00;;;;;;5048578;28;20851;-55
2023/03/05 10:38:24;;;;;;;4.57;2.80;;;5.80;1.00;;;;;;5040504;28;20450;-53
2023/03/05 10:40:54;;;;;;;4.73;1.90;;;5.90;1.00;;;;;;5048090;28;20928;-55
2023/03/05 10:43:26;;;;;;;2.43;1.97;;;6.00;1.00;;;;;;5046635;28;20188;-56
2023/03/05 10:45:53;;;;;;;2.67;2.20;;;6.00;1.00;;;;;;5047954;28;20449;-55
2023/03/05 10:48:31;;;;;;;2.80;1.57;;;5.90;1.00;;;;;;5044339;28;20561;-54
2023/03/05 10:51:03;;;;;;;3.47;2.40;;;5.90;1.00;;;;;;5044500;28;20967;-51
2023/03/05 10:53:35;;;;;;;5.70;3.03;;;5.80;1.00;;;;;;5048446;28;20508;-56
2023/03/05 10:56:03;;;;;;;4.93;2.10;;;5.90;1.00;;;;;;5049636;28;20443;-53
2023/03/05 10:58:30;;;;;;;3.57;2.20;;;5.90;1.00;;;;;;5047728;28;20817;-55
2023/03/05 11:01:17;;;;;;;4.77;1.90;;;5.90;1.00;;;;;;5049446;28;20857;-52
2023/03/05 11:03:56;;;;;;;3.20;2.13;;;6.00;1.00;;;;;;5048405;28;20486;-55
2023/03/05 11:06:42;;;;;;;5.80;2.10;;;5.90;1.00;;;;;;5052838;28;20458;-55
2023/03/05 11:09:28;;;;;;;4.93;2.23;;;5.90;1.00;;;;;;5054403;28;20451;-54
2023/03/05 11:12:07;;;;;;;6.03;2.80;;;5.80;1.00;;;;;;5048991;28;20435;-53
2023/03/05 11:14:34;;;;;;;2.43;2.10;;;6.00;1.00;;;;;;5047812;28;20443;-54
2023/03/05 11:17:02;;;;;;;4.30;2.30;;;6.20;1.00;;;;;;5039026;28;20446;-54
2023/03/05 11:19:31;;;;;;;3.80;2.27;;;6.30;1.00;;;;;;5044576;28;20459;-53
2023/03/05 11:22:26;;;;;;;4.10;2.13;;;6.30;1.00;;;;;;5046029;28;20952;-54
2023/03/05 11:25:25;;;;;;;3.20;2.10;;;6.40;1.00;;;;;;5025759;28;20479;-56
2023/03/05 11:27:55;;;;;;;2.37;2.17;;;6.20;1.00;;;;;;5044707;28;20894;-55
2023/03/05 11:30:33;;;;;;;3.23;2.53;;;6.10;1.00;;;;;;5044909;28;20489;-54
2023/03/05 11:33:12;;;;;;;6.23;3.03;;;6.10;1.00;;;;;;5045633;28;20493;-56
2023/03/05 11:35:40;;;;;;;2.90;2.70;;;6.20;1.00;;;;;;5044460;28;20497;-55
2023/03/05 11:38:40;;;;;;;4.87;2.33;;;6.30;1.00;;;;;;5039267;28;20453;-54
2023/03/05 11:41:08;;;;;;;3.60;2.03;;;6.30;1.00;;;;;;5058231;28;20934;-56
2023/03/05 11:43:37;;;;;;;4.33;2.30;;;6.00;1.00;;;;;;5044179;28;20502;-54
2023/03/05 11:46:04;;;;;;;2.93;2.60;;;5.90;1.00;;;;;;5039528;28;20979;-54
2023/03/05 11:48:35;;;;;;;3.60;3.23;;;5.90;1.00;;;;;;5043006;28;20877;-53
2023/03/05 11:51:06;;;;;;;3.00;2.80;;;6.00;1.00;;;;;;5048551;28;20447;-56
2023/03/05 11:53:35;;;;;;;8.03;4.70;;;6.00;1.00;;;;;;5038366;28;20482;-53
2023/03/05 11:56:11;;;;;;;3.00;2.60;;;6.20;1.00;;;;;;5041556;28;20512;-58
2023/03/05 11:58:43;;;;;;;4.40;3.10;;;6.20;1.00;;;;;;5041203;28;20832;-52
2023/03/05 12:01:17;;;;;;;3.57;3.27;;;6.10;1.00;;;;;;5056535;28;20450;-55
2023/03/05 12:03:44;;;;;;;3.77;3.47;;;6.00;1.00;;;;;;5047549;28;20480;-53
2023/03/05 12:06:19;;;;;;;4.67;4.10;;;6.20;1.00;;;;;;5052019;28;20477;-53
2023/03/05 12:08:49;;;;;;;4.10;3.47;;;6.00;1.00;;;;;;5047511;28;21813;-58
2023/03/05 12:11:21;;;;;;;4.80;3.40;;;6.00;1.00;;;;;;5044179;28;20450;-57
2023/03/05 12:13:51;;;;;;;4.80;4.10;;;6.00;1.00;;;;;;5042922;28;20469;-54
2023/03/05 12:16:23;;;;;;;5.50;4.33;;;6.10;1.00;;;;;;5044580;28;20812;-53
2023/03/05 12:18:59;;;;;;;5.27;4.77;;;6.10;1.00;;;;;;5037406;28;20963;-54
2023/03/05 12:21:40;;;;;;;5.60;5.10;;;5.90;1.00;;;;;;5043488;28;20454;-55
2023/03/05 12:24:24;;;;;;;7.87;5.07;;;6.00;1.00;;;;;;5050987;28;20481;-54
2023/03/05 12:27:02;;;;;;;5.50;4.83;;;6.10;1.00;;;;;;5054704;28;20477;-54
2023/03/05 12:29:48;;;;;;;4.87;4.30;;;6.10;1.00;;;;;;5047027;28;20439;-53
2023/03/05 12:32:32;;;;;;;6.33;5.10;;;6.00;1.00;;;;;;5039214;28;21398;-58
2023/03/05 12:34:59;;;;;;;7.37;4.97;;;5.90;1.00;;;;;;5043866;28;20529;-54
2023/03/05 12:37:24;;;;;;;7.70;5.20;;;6.10;1.00;;;;;;5055226;28;20441;-53
2023/03/05 12:39:57;;;;;;;6.97;5.47;;;6.10;1.00;;;;;;5051499;28;20951;-55
2023/03/05 12:42:28;;;;;;;5.00;4.23;;;6.20;1.00;;;;;;5049123;28;20242;-54
2023/03/05 12:45:15;;;;;;;6.87;5.07;;;6.30;1.00;;;;;;5048628;28;20466;-54
2023/03/05 12:47:45;;;;;;;8.20;4.90;;;6.00;1.00;;;;;;5047329;28;20439;-54
2023/03/05 12:50:26;;;;;;;5.00;4.17;;;5.90;1.00;;;;;;5045397;28;20451;-54
2023/03/05 12:52:54;;;;;;;6.20;4.10;;;5.90;1.00;;;;;;5041752;28;20894;-55
2023/03/05 12:55:34;;;;;;;7.43;3.83;;;5.90;1.00;;;;;;5045093;28;20457;-55
2023/03/05 12:58:11;;;;;;;5.00;3.67;;;5.80;1.00;;;;;;5047791;28;20816;-54
2023/03/05 13:00:40;;;;;;;3.87;3.17;;;5.70;1.00;;;;;;5048597;28;20457;-56
2023/03/05 13:03:11;;;;;;;5.70;3.60;;;5.90;1.00;;;;;;5047403;28;20447;-55
2023/03/05 13:05:38;;;;;;;6.47;4.10;;;5.90;1.00;;;;;;5052263;28;20446;-54
2023/03/05 13:08:26;;;;;;;4.73;4.30;;;6.00;1.00;;;;;;5045398;28;20832;-56
2023/03/05 13:11:07;;;;;;;3.97;3.57;;;5.90;1.00;;;;;;5044685;28;20516;-54
2023/03/05 13:13:37;;;;;;;3.37;3.10;;;6.00;1.00;;;;;;5052712;28;20455;-52
2023/03/05 13:16:04;;;;;;;5.60;4.13;;;6.20;1.00;;;;;;5056008;28;20537;-54